Flight Track Log - Related Links

Times and Time Zones

All times are in EDT time to prevent confusion due to time zone crossing. See the N379PK flight status page for this flight to view local times or setup timezone preferences in your user account.

Time Position Orientation Groundspeed Altitude Reporting Facility
EDT Latitude Longitude Course Direction KTS MPH feet Rate Location/Type
Tue 09:57:59 PM 40.1747 -111.7150 168° South 168 193 6,100  Level Salt Lake Center
Tue 09:59:00 PM 40.1461 -111.7667 234° Southwest 173 199 7,900 1,884 Climbing Salt Lake Center
Tue 10:00:00 PM 40.1783 -111.8092 315° West 157 181 9,900 1,649 Climbing Salt Lake Center
Tue 10:01:11 PM 40.2189 -111.8408 329° Northwest 178 205 11,500 1,623 Climbing Salt Lake Center
Tue 10:02:02 PM 40.2483 -111.9006 303° West 183 211 13,200 1,795 Climbing Salt Lake Center
Tue 10:03:08 PM 40.2825 -111.9539 310° West 177 204 15,000 1,606 Climbing Salt Lake Center
Tue 10:04:09 PM 40.3264 -111.9897 328° Northwest 194 223 16,600 1,302 Climbing Salt Lake Center
Tue 10:05:17 PM 40.3772 -112.0203 335° Northwest 197 227 17,800 1,062 Climbing Salt Lake Center
Tue 10:06:19 PM 40.4278 -112.0583 330° Northwest 209 241 18,900 1,024 Climbing Salt Lake Center
Tue 10:07:20 PM 40.4789 -112.0967 330° Northwest 211 243 19,900 976 Climbing Salt Lake Center
Tue 10:08:22 PM 40.5308 -112.1353 331° Northwest 213 245 20,900 927 Climbing Salt Lake Center
Tue 10:09:23 PM 40.5814 -112.1742 330° Northwest 208 239 21,800 732 Climbing Salt Lake Center
Tue 10:10:25 PM 40.6342 -112.2122 331° Northwest 215 247 22,400 732 Climbing Salt Lake Center
Tue 10:11:26 PM 40.6967 -112.2608 329° Northwest 217 250 23,300 780 Climbing Salt Lake Center
Tue 10:12:28 PM 40.7519 -112.3011 331° Northwest 226 260 24,000 780 Climbing Salt Lake Center
Tue 10:13:29 PM 40.8053 -112.3406 331° Northwest 219 252 24,900 780 Climbing Salt Lake Center
Tue 10:14:31 PM 40.8567 -112.3800 330° Northwest 213 245 25,600 581 Climbing Salt Lake Center
Tue 10:15:33 PM 40.9119 -112.4194 332° Northwest 227 261 26,100 244 Climbing Salt Lake Center
Tue 10:16:34 PM 40.9692 -112.4642 329° Northwest 241 277 26,100  Level Salt Lake Center
Tue 10:17:36 PM 41.0322 -112.5111 331° Northwest 259 298 26,100  Level Salt Lake Center
Tue 10:18:37 PM 41.0961 -112.5608 330° Northwest 265 305 26,100  Level Salt Lake Center
Tue 10:19:39 PM 41.1619 -112.6117 330° Northwest 272 313 26,100  Level Salt Lake Center
Tue 10:20:41 PM 41.2411 -112.6711 331° Northwest 272 313 26,100  Level Salt Lake Center
Tue 10:21:42 PM 41.3061 -112.7214 330° Northwest 271 312 26,100  Level Salt Lake Center
Tue 10:22:44 PM 41.3717 -112.7717 330° Northwest 272 313 26,100  Level Salt Lake Center
Tue 10:23:45 PM 41.4369 -112.8228 330° Northwest 272 313 26,100  Level Salt Lake Center
Tue 10:24:47 PM 41.5036 -112.8733 330° Northwest 275 316 26,100  Level Salt Lake Center
Tue 10:25:49 PM 41.5686 -112.9244 330° Northwest 272 313 26,100  Level Salt Lake Center
Tue 10:26:50 PM 41.6353 -112.9753 330° Northwest 274 315 26,100  Level Salt Lake Center
Tue 10:27:52 PM 41.7014 -113.0261 330° Northwest 275 316 26,100  Level Salt Lake Center
Tue 10:28:54 PM 41.7803 -113.0881 330° Northwest 274 315 26,100  Level Salt Lake Center
Tue 10:29:55 PM 41.8458 -113.1397 330° Northwest 274 315 26,100  Level Salt Lake Center
Tue 10:30:57 PM 41.9122 -113.1906 330° Northwest 275 316 26,100  Level Salt Lake Center
Tue 10:31:59 PM 41.9772 -113.2431 329° Northwest 273 314 26,100  Level Salt Lake Center
Tue 10:33:01 PM 42.0431 -113.2947 330° Northwest 274 315 26,100  Level Salt Lake Center
Tue 10:34:02 PM 42.1097 -113.3453 331° Northwest 274 315 26,100  Level Salt Lake Center
Tue 10:35:04 PM 42.1742 -113.3989 328° Northwest 273 314 26,100  Level Salt Lake Center
Tue 10:36:06 PM 42.2531 -113.4583 331° Northwest 271 312 26,100  Level Salt Lake Center
Tue 10:37:07 PM 42.3167 -113.5117 328° Northwest 270 311 26,100  Level Salt Lake Center
Tue 10:38:09 PM 42.3819 -113.5628 330° Northwest 271 312 26,100 -48 Level Salt Lake Center
Tue 10:39:11 PM 42.4453 -113.6108 331° Northwest 264 304 26,000 -49 Descending Salt Lake Center
Tue 10:40:12 PM 42.5092 -113.6631 329° Northwest 267 307 26,000  Level Salt Lake Center
Tue 10:41:14 PM 42.5739 -113.7144 330° Northwest 269 310 26,000  Level Salt Lake Center
Tue 10:42:16 PM 42.6375 -113.7667 329° Northwest 268 308 26,000  Level Salt Lake Center
Tue 10:43:17 PM 42.7067 -113.8225 329° Northwest 268 308 26,000 49 Level Salt Lake Center
Tue 10:44:19 PM 42.7792 -113.8844 328° Northwest 270 311 26,100 48 Climbing Salt Lake Center
Tue 10:45:21 PM 42.8403 -113.9342 329° Northwest 257 296 26,100 -49 Level Salt Lake Center
Tue 10:46:22 PM 42.9011 -113.9833 329° Northwest 254 292 26,000 -49 Descending Salt Lake Center
Tue 10:47:24 PM 42.9614 -114.0314 330° Northwest 253 291 26,000  Level Salt Lake Center
Tue 10:48:26 PM 43.0200 -114.0819 328° Northwest 250 288 26,000  Level Salt Lake Center
Tue 10:49:27 PM 43.0811 -114.1286 331° Northwest 253 291 26,000  Level Salt Lake Center
Tue 10:50:29 PM 43.1403 -114.1786 328° Northwest 251 289 26,000  Level Salt Lake Center
Tue 10:51:30 PM 43.2125 -114.2383 329° Northwest 255 293 26,000  Level Salt Lake Center
Tue 10:52:32 PM 43.2753 -114.2892 329° Northwest 252 290 26,000  Level Salt Lake Center
Tue 10:53:34 PM 43.3347 -114.3386 329° Northwest 256 295 26,000  Level Salt Lake Center
Tue 10:54:35 PM 43.3972 -114.3911 329° Northwest 254 292 26,000  Level Salt Lake Center
Tue 10:55:37 PM 43.4547 -114.4381 329° Northwest 251 289 26,000  Level Salt Lake Center
Tue 10:56:38 PM 43.5217 -114.4939 329° Northwest 254 292 26,000  Level Salt Lake Center
Tue 10:57:40 PM 43.5792 -114.5414 329° Northwest 252 290 26,000  Level Salt Lake Center
Tue 10:58:41 PM 43.6475 -114.5986 329° Northwest 255 293 26,000  Level Salt Lake Center
Tue 10:59:43 PM 43.7078 -114.6486 329° Northwest 258 297 26,000  Level Salt Lake Center
Tue 11:00:44 PM 43.7692 -114.7019 328° Northwest 252 290 26,000  Level Salt Lake Center
Tue 11:01:46 PM 43.8272 -114.7508 329° Northwest 252 290 26,000  Level Salt Lake Center
Tue 11:02:47 PM 43.8894 -114.8028 329° Northwest 251 289 26,000  Level Salt Lake Center
Tue 11:03:49 PM 43.9525 -114.8572 328° Northwest 254 292 26,000  Level Salt Lake Center
Tue 11:04:50 PM 44.0114 -114.9067 329° Northwest 251 289 26,000  Level Salt Lake Center
Tue 11:05:52 PM 44.0700 -114.9550 329° Northwest 256 295 26,000  Level Salt Lake Center
Tue 11:06:53 PM 44.1378 -115.0128 329° Northwest 255 293 26,000  Level Salt Lake Center
Tue 11:07:54 PM 44.2003 -115.0661 329° Northwest 257 296 26,000  Level Salt Lake Center
Tue 11:08:56 PM 44.2650 -115.1206 329° Northwest 257 296 26,000  Level Salt Lake Center
Tue 11:09:57 PM 44.3222 -115.1700 328° Northwest 256 295 26,000  Level Salt Lake Center
Tue 11:10:58 PM 44.3769 -115.2189 327° Northwest 255 293 26,000  Level Salt Lake Center
Tue 11:12:00 PM 44.6901 -115.4948 329° Northwest  Level FlightAware Approximate
Tue 11:12:45 PM 44.4844 -115.3194 329° Northwest 259 298 26,000  Level Seattle Center
Tue 11:13:46 PM 44.5589 -115.3817 329° Northwest 259 298 26,000  Level Seattle Center
Tue 11:14:47 PM 44.6194 -115.4372 327° Northwest 260 299 26,000  Level Seattle Center
Tue 11:15:53 PM 44.6878 -115.4911 331° Northwest 258 297 26,000  Level Salt Lake Center
Tue 11:16:54 PM 44.7414 -115.5367 329° Northwest 256 295 26,000  Level Salt Lake Center
Tue 11:17:55 PM 44.8014 -115.5906 327° Northwest 253 291 26,000  Level Salt Lake Center
Tue 11:18:57 PM 44.8611 -115.6489 325° Northwest 256 295 26,000  Level Salt Lake Center
Tue 11:19:58 PM 44.9350 -115.7069 331° Northwest 255 293 26,000  Level Salt Lake Center
Tue 11:20:59 PM 44.9953 -115.7592 329° Northwest 256 295 26,000  Level Salt Lake Center
Tue 11:22:01 PM 45.0556 -115.8097 329° Northwest 255 293 26,000  Level Salt Lake Center
Tue 11:23:02 PM 45.1158 -115.8644 327° Northwest 257 296 26,000  Level Salt Lake Center
Tue 11:24:04 PM 45.1758 -115.9194 327° Northwest 258 297 26,000  Level Salt Lake Center
Tue 11:25:04 PM 45.2361 -115.9719 328° Northwest 256 295 26,000  Level Salt Lake Center
Tue 11:26:06 PM 45.2961 -116.0253 328° Northwest 255 293 26,000  Level Salt Lake Center
Tue 11:27:07 PM 45.3550 -116.0806 327° Northwest 254 292 26,000 -246 Level Salt Lake Center
Tue 11:28:08 PM 45.4150 -116.1342 328° Northwest 255 293 25,500 -1,033 Descending Salt Lake Center
Tue 11:29:09 PM 45.4803 -116.1911 329° Northwest 267 307 23,900 -1,610 Descending Salt Lake Center
Tue 11:30:11 PM 45.5647 -116.2667 328° Northwest 292 336 22,200 -1,463 Descending Salt Lake Center
Tue 11:31:12 PM 45.6306 -116.3294 326° Northwest 290 334 20,900 -1,377 Descending Salt Lake Center
Tue 11:32:13 PM 45.6961 -116.3897 327° Northwest 283 326 19,400 -1,475 Descending Salt Lake Center
Tue 11:33:14 PM 45.7619 -116.4500 327° Northwest 282 325 17,900 -1,525 Descending Salt Lake Center
Tue 11:34:15 PM 45.8275 -116.5128 326° Northwest 283 326 16,300 -1,415 Descending Salt Lake Center
Tue 11:35:17 PM 45.8928 -116.5733 327° Northwest 282 325 15,000 -1,171 Descending Salt Lake Center
Tue 11:36:18 PM 45.9553 -116.6292 328° Northwest 275 316 13,900 -1,328 Descending Seattle Center
Tue 11:37:19 PM 46.0172 -116.6881 327° Northwest 270 311 12,300 -1,686 Descending Seattle Center
Tue 11:38:19 PM 46.0808 -116.7458 328° Northwest 271 312 10,500 -1,587 Descending Seattle Center
Tue 11:39:20 PM 46.1406 -116.8031 326° Northwest 266 306 9,100 -1,623 Descending Seattle Center
Tue 11:40:21 PM 46.2008 -116.8556 329° Northwest 260 299 7,200 -1,820 Descending Seattle Center
Tue 11:41:22 PM 46.2564 -116.9072 327° Northwest 250 288 5,400 -1,770 Descending Seattle Center

Login

Don't have an account? Register now (free) for customized features, flight alerts, and more!